x

West Santa Barbara 38 Nm West Of Santa Barbara, Ca (46054) Wave Buoy

10:50pm - Sun 22nd Jan 2017 All times are PST. -8 hours from GMT.

  • Sig Wave height 11.8ft
  • Swell Direction
  • Peak Period 14s
  • Average Period 9s
  • Wind
    20mph, 25mph gusts
  • Sea Temp 57°f
  • 空気 Temp 56°f
  • Sea Pressure 1011.5mb
  • West Santa Barbara  38 Nm West Of Santa Barbara, Ca
  • West Santa Barbara  38 Nm West Of Santa Barbara, Ca

More Historic Weather Station data

Upgrade to MSW Pro to gain access to the past 30 days of data for over 8000 Wavebouys and Weather Stations around the globe.

Join Pro

Comparision Forecast

View Surf forecast
   
Sun 01/22 10:50pm 12ft 14s 9s 20 25 mph 1011.5mb 57f 56f
9:50pm 13ft 15s 9s 16 22 mph 1011.3mb 57f 55f
8:50pm 12.5ft 15s 9s 16 20 mph 1011mb 57f 54f
7:50pm 11ft 13s 8s 16 22 mph 1010.4mb 57f 58f
6:50pm 12.5ft 15s 9s 18 22 mph 1010.1mb 57f 58f
5:50pm 13ft 16s 9s 13 18 mph 1010.4mb 57f 57f
4:50pm 14.5ft 16s 10s 13 18 mph 1010.3mb 57f 57f
3:50pm 12.5ft 16s 9s 4 7 mph 1010.3mb 57f 55f
2:50pm 15ft 16s 9s 7 9 mph 1010.4mb 57f 55f
1:50pm 16.5ft 16s 9s 9 11 mph 1010.4mb 57f 56f
12:50pm 15ft 16s 8s 13 20 mph 1010.9mb 57f 56f
11:50am 16ft 14s 8s 27 43 mph 1010.8mb 57f 56f
10:50am 16.5ft 15s 8s 34 45 mph 1011.6mb 57f 55f
9:50am 15ft 16s 8s 29 40 mph 1012.3mb 57f 55f
8:50am 15ft 16s 8s 31 40 mph 1012.4mb 57f 54f
7:50am 13.5ft 16s 8s 31 40 mph 1012.4mb 57f 54f
6:50am 15ft 16s 8s 31 40 mph 1012.8mb 57f 54f
5:50am 16ft 16s 9s 29 40 mph 1013.5mb 57f 54f
4:50am 15ft 17s 9s 29 38 mph 1013.9mb 57f 55f
3:50am 19.5ft 17s 11s 29 36 mph 1014.3mb 57f 55f
2:50am 19ft 17s 11s 29 38 mph 1014.8mb 57f 54f
1:50am 18.5ft 17s 11s 27 34 mph 1015.6mb 57f 54f
12:50am 16ft 17s 11s 25 31 mph 1016.3mb 57f 54f
Sat 01/21 11:50pm 18.5ft 17s 12s 20 27 mph 1017.1mb 57f 55f
10:50pm 19ft 16s 12s 20 25 mph 1016.5mb 57f 56f
9:50pm 19.5ft 19s 12s 18 27 mph 1017.1mb 57f 57f
8:50pm 21.5ft 19s 12s 13 20 mph 1016.4mb 57f 57f
7:50pm 21.5ft 19s 12s 11 13 mph 1016.5mb 57f 57f
6:50pm 23ft 19s 12s 9 11 mph 1016.9mb 57f 57f
5:50pm 25.5ft 17s 13s 11 13 mph 1015.7mb 58f 56f
4:50pm 23ft 19s 12s 11 13 mph 1014.9mb 58f 56f
3:50pm 26ft 19s 13s 4 9 mph 1014.5mb 58f 56f
2:50pm 24ft 17s 12s 7 11 mph 1015.1mb 58f 56f
1:50pm 24.5ft 19s 13s 7 13 mph 1014.7mb 58f 56f
12:50pm 22ft 15s 12s 7 13 mph 1014.6mb 58f 56f
11:50am 23.5ft 17s 12s 9 13 mph 1015mb 57f 56f
10:50am 21ft 17s 11s 11 16 mph 1014.9mb 57f 55f
9:50am 21.5ft 15s 11s 13 18 mph 1013.7mb 57f 56f
8:50am 20.5ft 15s 11s 13 18 mph 1012.6mb 57f 55f
7:50am 20.5ft 16s 11s 16 22 mph 1010.9mb 57f 55f
6:50am 20.5ft 16s 11s 18 22 mph 1009.8mb 57f 55f
5:50am 20.5ft 16s 10s 20 25 mph 1008.1mb 57f 54f
4:50am 20.5ft 14s 10s 22 27 mph 1007mb 57f 56f
3:50am 18ft 13s 10s 25 29 mph 1006.5mb 57f 56f
2:50am 16.5ft 15s 9s 22 27 mph 1005.6mb 57f 56f
1:50am 17.5ft 14s 10s 20 25 mph 1004.5mb 57f 55f
12:50am 15.5ft 14s 9s 20 27 mph 1004mb 57f 55f
Fri 01/20 11:50pm 16.5ft 16s 10s 22 29 mph 1003.6mb 57f 55f
10:50pm 15ft 14s 10s 20 27 mph 1003mb 57f 53f
9:50pm 14.5ft 12s 9s 9 13 mph 1002.6mb 57f 53f
8:50pm 15.5ft 15s 10s 13 16 mph 1002.5mb 58f 51f
7:50pm 15ft 15s 10s 16 22 mph 1001.6mb 58f 53f
6:50pm 14.5ft 14s 9s 27 31 mph 1000.5mb 58f 55f
5:50pm 15.5ft 14s 10s 20 25 mph 999.6mb 58f 55f
4:50pm 15.5ft 15s 9s 20 27 mph 999mb 58f 55f
3:50pm 13.5ft 14s 9s 20 27 mph 998.5mb 58f 56f
2:50pm 14ft 14s 9s 18 22 mph 998.5mb 58f 54f
1:50pm 14ft 14s 9s 16 18 mph 998.2mb 58f 53f
12:50pm 13ft 15s 8s 22 29 mph 998.5mb 58f 54f
11:50am 15ft 15s 9s 27 34 mph 997.9mb 58f 54f
10:50am 13ft 15s 8s 25 31 mph 998.1mb 58f 57f
9:50am 14.5ft 15s 9s 18 22 mph 999.4mb 58f 55f
8:50am 14.5ft 15s 9s 31 36 mph 999mb 58f 58f
7:50am 12ft 16s 8s 31 43 mph 999.6mb 58f 57f
6:50am 12ft 14s 9s 27 34 mph 1001.7mb 58f 56f
5:50am 13ft 14s 10s 20 25 mph 1004.1mb 58f 56f
4:50am 12.5ft 14s 10s 20 25 mph 1004.8mb 58f 56f
3:50am 14ft 14s 11s 16 20 mph 1006.9mb 58f 57f
2:50am 13.5ft 14s 10s 16 22 mph 1008.4mb 58f 56f
1:50am 14ft 14s 10s 7 11 mph 1009.1mb 58f 54f
12:50am 14.5ft 14s 10s 4 9 mph 1009.8mb 58f 56f
Thu 01/19 11:50pm 12.5ft 13s 10s 9 11 mph 1011.1mb 58f 56f
10:50pm 12ft 13s 10s 11 13 mph 1011.9mb 58f 56f
9:50pm 12ft 13s 10s 9 13 mph 1011.8mb 58f 56f
8:50pm 9.5ft 12s 9s 9 13 mph 1012.5mb 58f 56f
7:50pm 10ft 13s 9s 9 13 mph 1012.5mb 58f 56f
6:50pm 11ft 12s 9s 11 16 mph 1012.8mb 58f 56f
5:50pm 10ft 13s 9s 16 18 mph 1012.7mb 58f 56f
4:50pm 10ft 13s 9s 13 16 mph 1012.7mb 58f 56f
3:50pm 9.5ft 13s 9s 13 16 mph 1012.5mb 58f 57f
2:50pm 10ft 13s 9s 9 11 mph 1012.7mb 58f 58f
1:50pm 10.5ft 13s 9s 9 11 mph 1012.9mb 58f 57f
12:50pm 10ft 12s 9s 9 13 mph 1013.6mb 58f 57f
11:50am 10ft 13s 9s 11 16 mph 1015mb 58f 57f
10:50am 10ft 13s 9s 11 16 mph 1015.2mb 58f 57f
9:50am 10ft 13s 9s 13 16 mph 1014.8mb 58f 57f
8:50am 11ft 14s 9s 11 16 mph 1014.8mb 58f 57f